createdAt,value
2023-06-04T00:00:10.508Z,96968.31
2023-06-04T00:02:40.273Z,96966.81
2023-06-04T00:05:09.966Z,96971.63
2023-06-04T00:07:39.854Z,96967.16
2023-06-04T00:10:09.291Z,96970.81
2023-06-04T00:12:38.280Z,96971.53
2023-06-04T00:15:08.394Z,96969.47
2023-06-04T00:17:36.694Z,96970.59
2023-06-04T00:20:05.946Z,96964.28
2023-06-04T00:22:34.675Z,96957.50
2023-06-04T00:25:05.174Z,96962.13
2023-06-04T00:27:33.809Z,96957.31
2023-06-04T00:30:02.657Z,96959.19
2023-06-04T00:32:31.120Z,96965.34
2023-06-04T00:35:00.048Z,96962.72
2023-06-04T00:37:29.809Z,96962.31
2023-06-04T00:39:58.322Z,96960.41
2023-06-04T00:42:28.420Z,96963.16
2023-06-04T00:44:58.752Z,96961.75
2023-06-04T00:47:27.579Z,96961.16
2023-06-04T00:50:00.258Z,96967.75
2023-06-04T00:52:28.949Z,96966.00
2023-06-04T00:54:57.887Z,96964.94
2023-06-04T00:57:27.918Z,96971.66
2023-06-04T00:59:57.149Z,96966.13
2023-06-04T01:02:28.740Z,96975.75
2023-06-04T01:05:11.158Z,96970.38
2023-06-04T01:07:46.618Z,96968.19
2023-06-04T01:10:15.599Z,96979.16
2023-06-04T01:12:45.985Z,96970.25
2023-06-04T01:15:16.714Z,96973.34
2023-06-04T01:17:52.805Z,96970.81
2023-06-04T01:20:36.652Z,96979.94
2023-06-04T01:23:30.085Z,96974.97
2023-06-04T01:25:59.468Z,96971.66
2023-06-04T01:28:30.623Z,96970.63
2023-06-04T01:31:00.801Z,96976.84
2023-06-04T01:33:30.713Z,96970.94
2023-06-04T01:36:01.121Z,96974.91
2023-06-04T01:38:30.007Z,96968.56
2023-06-04T01:41:02.429Z,96976.28
2023-06-04T01:43:36.090Z,96973.06
2023-06-04T01:46:04.845Z,96977.16
2023-06-04T01:48:34.837Z,96973.81
2023-06-04T01:51:03.566Z,96965.31
2023-06-04T01:53:32.970Z,96971.19
2023-06-04T01:56:02.229Z,96975.00
2023-06-04T01:58:33.280Z,96981.75
2023-06-04T02:01:04.537Z,96984.63
2023-06-04T02:03:38.018Z,96984.47
2023-06-04T02:06:08.574Z,96990.94
2023-06-04T02:08:37.604Z,96990.13
2023-06-04T02:11:06.474Z,96979.56
2023-06-04T02:13:37.374Z,96986.66
2023-06-04T02:16:06.620Z,96978.13
2023-06-04T02:18:35.310Z,96978.22
2023-06-04T02:21:05.906Z,96989.56
2023-06-04T02:23:34.408Z,96976.53
2023-06-04T02:26:03.084Z,96980.44
2023-06-04T02:28:31.881Z,96980.47
2023-06-04T02:31:01.675Z,96976.41
2023-06-04T02:33:30.280Z,96981.31
2023-06-04T02:35:59.251Z,96982.31
2023-06-04T02:38:27.900Z,96978.25
2023-06-04T02:40:56.285Z,96970.22
2023-06-04T02:43:25.311Z,96981.31
2023-06-04T02:45:53.988Z,96974.56
2023-06-04T02:48:23.674Z,96979.75
2023-06-04T02:50:52.391Z,96983.84
2023-06-04T02:53:22.033Z,96984.50
2023-06-04T02:55:51.906Z,96985.09
2023-06-04T02:58:20.221Z,96980.28
2023-06-04T03:00:48.855Z,96988.00
2023-06-04T03:03:17.690Z,96985.41
2023-06-04T03:05:47.820Z,96985.38
2023-06-04T03:08:16.708Z,96988.53
2023-06-04T03:10:45.792Z,97000.09
2023-06-04T03:13:16.380Z,96997.66
2023-06-04T03:15:45.908Z,96999.03
2023-06-04T03:18:14.580Z,97001.38
2023-06-04T03:20:43.194Z,97004.41
2023-06-04T03:23:13.248Z,97010.25
2023-06-04T03:25:41.868Z,97001.44
2023-06-04T03:28:10.634Z,97007.91
2023-06-04T03:30:39.366Z,97008.41
2023-06-04T03:33:09.983Z,97012.22
2023-06-04T03:35:38.810Z,97010.41
2023-06-04T03:38:07.993Z,97016.97
2023-06-04T03:40:38.660Z,97012.81
2023-06-04T03:43:09.251Z,97014.16
2023-06-04T03:45:38.650Z,97014.66
2023-06-04T03:48:07.713Z,97011.41
2023-06-04T03:50:37.976Z,97019.63
2023-06-04T03:53:07.008Z,97019.97
2023-06-04T03:55:38.082Z,97014.84
2023-06-04T03:58:10.541Z,97014.31
2023-06-04T04:00:41.285Z,97026.50
2023-06-04T04:03:11.271Z,97023.53
2023-06-04T04:05:40.292Z,97022.03
2023-06-04T04:08:10.111Z,97026.47
2023-06-04T04:10:40.280Z,97025.13
2023-06-04T04:13:08.903Z,97029.09
2023-06-04T04:15:40.551Z,97029.28
2023-06-04T04:18:11.854Z,97028.72
2023-06-04T04:20:41.121Z,97023.72
2023-06-04T04:23:13.014Z,97025.88
2023-06-04T04:25:46.192Z,97023.63
2023-06-04T04:28:15.421Z,97025.94
2023-06-04T04:30:44.511Z,97032.25
2023-06-04T04:33:16.827Z,97030.91
2023-06-04T04:35:49.182Z,97028.78
2023-06-04T04:38:20.587Z,97036.00
2023-06-04T04:40:56.739Z,97035.91
2023-06-04T04:43:33.464Z,97043.06
2023-06-04T04:46:09.752Z,97043.81
2023-06-04T04:48:39.754Z,97037.19
2023-06-04T04:51:08.778Z,97038.50
2023-06-04T04:53:38.208Z,97045.03
2023-06-04T04:56:08.524Z,97045.09
2023-06-04T04:58:40.866Z,97045.22
2023-06-04T05:01:10.110Z,97050.09
2023-06-04T05:03:40.102Z,97051.09
2023-06-04T05:06:09.943Z,97050.69
2023-06-04T05:08:38.846Z,97057.53
2023-06-04T05:11:09.316Z,97060.78
2023-06-04T05:13:38.495Z,97058.94
2023-06-04T05:16:08.768Z,97068.00
2023-06-04T05:18:42.411Z,97069.03
2023-06-04T05:21:13.966Z,97074.53
2023-06-04T05:23:49.665Z,97072.00
2023-06-04T05:26:24.263Z,97074.16
2023-06-04T05:28:56.050Z,97077.72
2023-06-04T05:31:27.699Z,97077.81
2023-06-04T05:33:58.670Z,97079.03
2023-06-04T05:36:29.295Z,97081.38
2023-06-04T05:39:01.098Z,97086.06
2023-06-04T05:41:51.603Z,97088.63
2023-06-04T05:44:20.765Z,97093.69
2023-06-04T05:46:50.230Z,97094.53
2023-06-04T05:49:19.057Z,97095.56
2023-06-04T05:51:47.904Z,97097.25
2023-06-04T05:54:16.647Z,97106.41
2023-06-04T05:56:46.315Z,97105.78
2023-06-04T05:59:16.818Z,97109.03
2023-06-04T06:01:45.532Z,97106.09
2023-06-04T06:04:14.639Z,97101.44
2023-06-04T06:06:45.123Z,97106.66
2023-06-04T06:09:13.875Z,97107.13
2023-06-04T06:11:42.953Z,97108.28
2023-06-04T06:14:11.529Z,97107.44
2023-06-04T06:16:41.387Z,97107.03
2023-06-04T06:19:09.936Z,97113.06
2023-06-04T06:21:38.704Z,97111.41
2023-06-04T06:24:07.492Z,97108.44
2023-06-04T06:26:37.207Z,97119.28
2023-06-04T06:29:07.219Z,97118.38
2023-06-04T06:31:36.934Z,97128.53
2023-06-04T06:34:06.685Z,97120.84
2023-06-04T06:36:35.377Z,97122.22
2023-06-04T06:39:04.423Z,97121.47
2023-06-04T06:41:33.510Z,97128.63
2023-06-04T06:44:02.249Z,97132.03
2023-06-04T06:46:30.589Z,97126.81
2023-06-04T06:49:00.285Z,97128.91
2023-06-04T06:51:29.982Z,97134.19
2023-06-04T06:53:58.615Z,97131.41
2023-06-04T06:56:27.352Z,97134.19
2023-06-04T06:58:55.659Z,97137.00
2023-06-04T07:01:24.429Z,97138.56
2023-06-04T07:03:53.047Z,97133.00
2023-06-04T07:06:22.032Z,97139.78
2023-06-04T07:08:51.676Z,97137.34
2023-06-04T07:11:20.361Z,97144.03
2023-06-04T07:13:48.875Z,97135.31
2023-06-04T07:16:17.842Z,97139.69
2023-06-04T07:18:47.246Z,97141.91
2023-06-04T07:21:15.506Z,97142.69
2023-06-04T07:23:46.722Z,97139.22
2023-06-04T07:26:17.451Z,97146.00
2023-06-04T07:28:47.354Z,97138.75
2023-06-04T07:31:18.657Z,97132.47
2023-06-04T07:33:47.019Z,97135.03
2023-06-04T07:36:16.397Z,97135.38
2023-06-04T07:38:45.062Z,97144.00
2023-06-04T07:41:15.070Z,97138.22
2023-06-04T07:43:45.593Z,97138.13
2023-06-04T07:46:14.119Z,97135.31
2023-06-04T07:48:42.455Z,97135.31
2023-06-04T07:51:12.480Z,97129.94
2023-06-04T07:53:42.044Z,97131.53
2023-06-04T07:56:10.486Z,97137.41
2023-06-04T07:58:41.567Z,97128.69
2023-06-04T08:01:11.131Z,97127.63
2023-06-04T08:03:39.855Z,97134.81
2023-06-04T08:06:08.871Z,97135.13
2023-06-04T08:08:37.214Z,97124.88
2023-06-04T08:11:06.001Z,97128.06
2023-06-04T08:13:34.453Z,97127.47
2023-06-04T08:16:04.133Z,97122.31
2023-06-04T08:18:32.414Z,97126.31
2023-06-04T08:21:00.822Z,97129.19
2023-06-04T08:23:29.175Z,97133.06
2023-06-04T08:25:57.595Z,97128.84
2023-06-04T08:28:26.027Z,97130.84
2023-06-04T08:30:54.333Z,97125.44
2023-06-04T08:33:23.970Z,97133.00
2023-06-04T08:35:52.601Z,97136.16
2023-06-04T08:38:22.156Z,97136.91
2023-06-04T08:40:58.717Z,97122.72
2023-06-04T08:43:27.909Z,97122.44
2023-06-04T08:46:03.043Z,97129.50
2023-06-04T08:48:34.378Z,97127.28
2023-06-04T08:51:04.856Z,97127.28
2023-06-04T08:53:34.141Z,97130.50
2023-06-04T08:56:02.756Z,97131.72
2023-06-04T08:58:34.445Z,97129.72
2023-06-04T09:01:04.353Z,97122.78
2023-06-04T09:03:35.208Z,97127.72
2023-06-04T09:06:04.542Z,97127.22
2023-06-04T09:08:39.702Z,97139.78
2023-06-04T09:11:13.100Z,97133.69
2023-06-04T09:13:43.709Z,97133.88
2023-06-04T09:16:12.390Z,97134.34
2023-06-04T09:18:43.165Z,97135.47
2023-06-04T09:21:11.726Z,97132.28
2023-06-04T09:23:47.355Z,97131.94
2023-06-04T09:26:16.573Z,97129.22
2023-06-04T09:28:47.079Z,97132.50
2023-06-04T09:31:17.689Z,97130.78
2023-06-04T09:33:50.430Z,97129.06
2023-06-04T09:36:19.596Z,97129.25
2023-06-04T09:38:48.852Z,97128.00
2023-06-04T09:41:24.791Z,97136.41
2023-06-04T09:44:03.979Z,97125.03
2023-06-04T09:46:33.144Z,97128.53
2023-06-04T09:49:05.519Z,97122.72
2023-06-04T09:51:34.613Z,97121.06
2023-06-04T09:54:05.345Z,97122.34
2023-06-04T09:56:42.507Z,97129.56
2023-06-04T09:59:12.120Z,97113.75
2023-06-04T10:01:44.185Z,97117.94
2023-06-04T10:04:17.165Z,97122.47
2023-06-04T10:06:46.001Z,97110.22
2023-06-04T10:09:16.066Z,97122.34
2023-06-04T10:11:55.650Z,97107.09
2023-06-04T10:14:27.585Z,97115.94
2023-06-04T10:17:00.526Z,97115.78
2023-06-04T10:19:32.397Z,97116.00
2023-06-04T10:22:00.698Z,97109.47
2023-06-04T10:24:29.185Z,97120.28
2023-06-04T10:27:00.500Z,97117.22
2023-06-04T10:29:31.984Z,97118.31
2023-06-04T10:32:00.338Z,97110.63
2023-06-04T10:34:31.113Z,97113.03
2023-06-04T10:36:59.805Z,97115.31
2023-06-04T10:39:29.162Z,97112.72
2023-06-04T10:42:02.590Z,97103.47
2023-06-04T10:44:32.169Z,97108.56
2023-06-04T10:47:01.031Z,97106.63
2023-06-04T10:49:33.079Z,97110.25
2023-06-04T10:52:12.981Z,97111.97
2023-06-04T10:54:41.516Z,97104.06
2023-06-04T10:57:14.063Z,97110.72
2023-06-04T10:59:42.535Z,97112.13
2023-06-04T11:02:11.342Z,97112.03
2023-06-04T11:04:41.327Z,97103.00
2023-06-04T11:07:10.904Z,97107.25
2023-06-04T11:09:49.624Z,97102.69
2023-06-04T11:12:18.773Z,97100.38
2023-06-04T11:14:57.046Z,97099.75
2023-06-04T11:17:25.845Z,97101.78
2023-06-04T11:19:56.768Z,97096.09
2023-06-04T11:22:26.082Z,97087.28
2023-06-04T11:25:00.384Z,97094.00
2023-06-04T11:27:36.810Z,97090.00
2023-06-04T11:30:09.853Z,97098.78
2023-06-04T11:32:38.186Z,97100.22
2023-06-04T11:35:09.616Z,97098.53
2023-06-04T11:37:38.707Z,97096.72
2023-06-04T11:40:19.149Z,97092.44
2023-06-04T11:42:49.066Z,97087.78
2023-06-04T11:45:20.339Z,97092.41
2023-06-04T11:47:50.530Z,97092.22
2023-06-04T11:50:20.509Z,97088.72
2023-06-04T11:52:50.490Z,97090.06
2023-06-04T11:55:21.899Z,97085.81
2023-06-04T11:57:52.025Z,97088.22
2023-06-04T12:00:23.082Z,97087.03
2023-06-04T12:02:54.756Z,97093.69
2023-06-04T12:05:31.710Z,97082.25
2023-06-04T12:08:11.293Z,97076.00
2023-06-04T12:10:41.666Z,97069.06
2023-06-04T12:13:10.573Z,97065.63
2023-06-04T12:15:39.213Z,97068.69
2023-06-04T12:18:08.085Z,97062.25
2023-06-04T12:20:39.759Z,97057.16
2023-06-04T12:23:09.564Z,97056.88
2023-06-04T12:25:40.171Z,97056.56
2023-06-04T12:28:18.965Z,97056.09
2023-06-04T12:30:50.667Z,97052.47
2023-06-04T12:33:19.202Z,97060.34
2023-06-04T12:35:48.912Z,97064.84
2023-06-04T12:38:17.253Z,97060.09
2023-06-04T12:40:45.969Z,97061.81
2023-06-04T12:43:14.248Z,97060.66
2023-06-04T12:45:42.941Z,97061.59
2023-06-04T12:48:11.502Z,97061.66
2023-06-04T12:50:40.244Z,97057.47
2023-06-04T12:53:09.895Z,97057.91
2023-06-04T12:55:38.549Z,97047.38
2023-06-04T12:58:06.857Z,97051.38
2023-06-04T13:00:35.226Z,97042.56
2023-06-04T13:03:04.151Z,97039.66
2023-06-04T13:05:32.814Z,97043.72
2023-06-04T13:08:02.324Z,97035.78
2023-06-04T13:10:32.327Z,97035.72
2023-06-04T13:13:00.659Z,97028.94
2023-06-04T13:15:30.513Z,97037.97
2023-06-04T13:17:58.884Z,97035.16
2023-06-04T13:20:27.534Z,97031.34
2023-06-04T13:22:56.032Z,97031.13
2023-06-04T13:25:25.066Z,97035.56
2023-06-04T13:27:55.063Z,97028.38
2023-06-04T13:30:24.539Z,97026.91
2023-06-04T13:32:53.402Z,97034.91
2023-06-04T13:35:22.765Z,97020.31
2023-06-04T13:37:52.332Z,97022.81
2023-06-04T13:40:20.644Z,97029.75
2023-06-04T13:42:49.308Z,97022.66
2023-06-04T13:45:21.273Z,97022.19
2023-06-04T13:47:50.256Z,97014.03
2023-06-04T13:50:18.905Z,97027.78
2023-06-04T13:52:47.266Z,97019.53
2023-06-04T13:55:15.650Z,97018.31
2023-06-04T13:57:44.454Z,97022.19
2023-06-04T14:00:16.123Z,97021.56
2023-06-04T14:02:46.086Z,97020.94
2023-06-04T14:05:14.754Z,97028.16
2023-06-04T14:07:44.455Z,97022.72
2023-06-04T14:10:13.468Z,97023.22
2023-06-04T14:12:42.544Z,97018.69
2023-06-04T14:15:12.963Z,97013.47
2023-06-04T14:17:41.601Z,97009.53
2023-06-04T14:20:12.060Z,97014.63
2023-06-04T14:22:41.000Z,97010.44
2023-06-04T14:25:10.956Z,97014.03
2023-06-04T14:27:39.634Z,97014.50
2023-06-04T14:30:10.442Z,97016.94
2023-06-04T14:32:39.670Z,97011.06
2023-06-04T14:35:10.802Z,97005.31
2023-06-04T14:37:39.124Z,97001.19
2023-06-04T14:40:09.222Z,97005.28
2023-06-04T14:42:37.634Z,97005.34
2023-06-04T14:45:07.244Z,97002.19
2023-06-04T14:47:35.675Z,97003.78
2023-06-04T14:50:04.005Z,97008.63
2023-06-04T14:52:33.680Z,97001.44
2023-06-04T14:55:01.946Z,97001.81
2023-06-04T14:57:30.217Z,96999.41
2023-06-04T14:59:58.515Z,97000.09
2023-06-04T15:02:26.851Z,96995.78
2023-06-04T15:04:55.158Z,96988.47
2023-06-04T15:07:24.998Z,96985.13
2023-06-04T15:09:54.644Z,96987.94
2023-06-04T15:12:23.249Z,96989.00
2023-06-04T15:14:51.978Z,96984.63
2023-06-04T15:17:20.408Z,96981.53
2023-06-04T15:19:49.157Z,96981.97
2023-06-04T15:22:17.861Z,96980.72
2023-06-04T15:24:46.484Z,96973.41
2023-06-04T15:27:16.332Z,96981.09
2023-06-04T15:29:46.499Z,96981.28
2023-06-04T15:32:16.755Z,96983.78
2023-06-04T15:34:45.665Z,96979.50
2023-06-04T15:37:13.984Z,96975.88
2023-06-04T15:39:42.635Z,96979.00
2023-06-04T15:42:13.028Z,96977.88
2023-06-04T15:44:43.230Z,96976.72
2023-06-04T15:47:12.567Z,96965.53
2023-06-04T15:49:41.138Z,96964.53
2023-06-04T15:52:09.812Z,96962.06
2023-06-04T15:57:12.933Z,96970.63
2023-06-04T15:59:44.165Z,96967.28
2023-06-04T16:02:12.801Z,96963.47
2023-06-04T16:04:41.158Z,96966.84
2023-06-04T16:07:09.459Z,96967.09
2023-06-04T16:09:38.312Z,96956.94
2023-06-04T16:12:07.387Z,96958.53
2023-06-04T16:14:36.283Z,96962.88
2023-06-04T16:17:06.831Z,96963.47
2023-06-04T16:19:35.186Z,96959.41
2023-06-04T16:22:03.879Z,96957.94
2023-06-04T16:24:32.706Z,96956.63
2023-06-04T16:27:01.390Z,96961.63
2023-06-04T16:29:29.619Z,96959.47
2023-06-04T16:31:58.284Z,96961.56
2023-06-04T16:34:28.019Z,96960.97
2023-06-04T16:36:56.317Z,96958.59
2023-06-04T16:39:24.916Z,96958.53
2023-06-04T16:41:53.919Z,96957.72
2023-06-04T16:44:22.254Z,96947.63
2023-06-04T16:46:50.642Z,96946.91
2023-06-04T16:49:19.026Z,96939.59
2023-06-04T16:51:49.466Z,96944.34
2023-06-04T16:54:19.093Z,96944.47
2023-06-04T16:56:47.467Z,96949.13
2023-06-04T16:59:15.872Z,96936.16
2023-06-04T17:01:44.661Z,96945.06
2023-06-04T17:04:12.945Z,96943.19
2023-06-04T17:06:41.562Z,96946.06
2023-06-04T17:09:11.808Z,96950.50
2023-06-04T17:11:40.297Z,96947.16
2023-06-04T17:14:09.144Z,96942.56
2023-06-04T17:16:38.220Z,96954.31
2023-06-04T17:19:07.346Z,96943.97
2023-06-04T17:21:37.061Z,96951.97
2023-06-04T17:24:05.994Z,96943.81
2023-06-04T17:26:36.123Z,96950.38
2023-06-04T17:29:05.535Z,96952.72
2023-06-04T17:31:34.256Z,96953.31
2023-06-04T17:34:03.043Z,96952.28
2023-06-04T17:36:31.515Z,96952.56
2023-06-04T17:39:00.179Z,96958.88
2023-06-04T17:41:30.151Z,96955.25
2023-06-04T17:44:00.129Z,96961.59
2023-06-04T17:46:28.827Z,96960.03
2023-06-04T17:48:58.638Z,96961.81
2023-06-04T17:51:27.266Z,96960.31
2023-06-04T17:53:55.883Z,96960.41
2023-06-04T17:56:24.442Z,96968.88
2023-06-04T17:58:53.044Z,96976.56
2023-06-04T18:01:22.714Z,96968.25
2023-06-04T18:03:51.804Z,96969.94
2023-06-04T18:06:20.499Z,96973.19
2023-06-04T18:08:49.217Z,96975.97
2023-06-04T18:11:17.878Z,96972.03
2023-06-04T18:13:46.638Z,96979.69
2023-06-04T18:16:16.300Z,96972.97
2023-06-04T18:18:46.497Z,96980.16
2023-06-04T18:21:14.833Z,96980.97
2023-06-04T18:23:49.833Z,96982.63
2023-06-04T18:26:18.126Z,96980.25
2023-06-04T18:28:47.066Z,96986.66
2023-06-04T18:31:15.411Z,96978.72
2023-06-04T18:33:54.045Z,96981.91
2023-06-04T18:36:23.065Z,96983.50
2023-06-04T18:38:51.738Z,96988.22
2023-06-04T18:41:20.322Z,96984.25
2023-06-04T18:43:49.050Z,96991.78
2023-06-04T18:46:18.019Z,96989.00
2023-06-04T18:48:48.034Z,96980.63
2023-06-04T18:51:17.756Z,96989.72
2023-06-04T18:53:46.422Z,96988.00
2023-06-04T18:56:15.029Z,96986.22
2023-06-04T18:58:46.863Z,96982.94
2023-06-04T19:01:16.507Z,96979.72
2023-06-04T19:03:45.196Z,96993.00
2023-06-04T19:06:13.953Z,96982.16
2023-06-04T19:08:43.697Z,96998.16
2023-06-04T19:11:12.317Z,96993.28
2023-06-04T19:13:41.015Z,96995.00
2023-06-04T19:16:11.986Z,96997.59
2023-06-04T19:18:40.472Z,96996.38
2023-06-04T19:21:09.148Z,97003.69
2023-06-04T19:23:38.209Z,96991.22
2023-06-04T19:26:09.058Z,96998.50
2023-06-04T19:28:38.845Z,97005.53
2023-06-04T19:31:07.543Z,96997.13
2023-06-04T19:33:36.418Z,96999.47
2023-06-04T19:36:05.854Z,96996.94
2023-06-04T19:38:34.878Z,97001.22
2023-06-04T19:41:03.645Z,97003.06
2023-06-04T19:43:33.299Z,97008.00
2023-06-04T19:46:03.038Z,97008.19
2023-06-04T19:48:31.834Z,97007.03
2023-06-04T19:51:00.495Z,97020.34
2023-06-04T19:53:29.595Z,97015.31
2023-06-04T19:55:58.224Z,97014.63
2023-06-04T19:58:27.785Z,97020.66
2023-06-04T20:00:57.798Z,97018.00
2023-06-04T20:03:26.698Z,97027.09
2023-06-04T20:05:55.777Z,97026.16
2023-06-04T20:08:26.046Z,97024.81
2023-06-04T20:10:54.876Z,97023.78
2023-06-04T20:13:23.594Z,97025.97
2023-06-04T20:15:52.344Z,97028.75
2023-06-04T20:18:23.511Z,97033.53
2023-06-04T20:20:53.311Z,97032.75
2023-06-04T20:23:22.083Z,97036.88
2023-06-04T20:25:51.642Z,97037.91
2023-06-04T20:28:20.704Z,97027.81
2023-06-04T20:30:49.966Z,97029.59
2023-06-04T20:33:18.353Z,97031.53
2023-06-04T20:35:48.067Z,97035.34
2023-06-04T20:38:16.881Z,97039.81
2023-06-04T20:40:45.867Z,97030.78
2023-06-04T20:43:17.361Z,97032.28
2023-06-04T20:45:45.978Z,97021.34
2023-06-04T20:48:14.702Z,97030.13
2023-06-04T20:50:43.348Z,97028.75
2023-06-04T20:53:13.216Z,97034.09
2023-06-04T20:55:41.970Z,97034.97
2023-06-04T20:58:10.940Z,97032.28
2023-06-04T21:00:39.605Z,97033.78
2023-06-04T21:03:08.062Z,97042.03
2023-06-04T21:05:36.515Z,97037.75
2023-06-04T21:08:05.540Z,97040.22
2023-06-04T21:10:35.769Z,97036.16
2023-06-04T21:13:04.274Z,97030.84
2023-06-04T21:15:33.150Z,97040.19
2023-06-04T21:18:01.869Z,97044.75
2023-06-04T21:20:30.605Z,97033.81
2023-06-04T21:22:58.953Z,97036.56
2023-06-04T21:25:27.603Z,97037.41
2023-06-04T21:27:57.349Z,97044.91
2023-06-04T21:30:26.406Z,97045.28
2023-06-04T21:32:55.339Z,97037.00
2023-06-04T21:35:23.973Z,97037.06
2023-06-04T21:37:52.655Z,97037.19
2023-06-04T21:40:21.249Z,97038.25
2023-06-04T21:42:49.970Z,97040.69
2023-06-04T21:45:20.528Z,97041.53
2023-06-04T21:47:49.475Z,97032.88
2023-06-04T21:50:18.166Z,97036.25
2023-06-04T21:52:47.637Z,97039.19
2023-06-04T21:55:16.790Z,97038.91
2023-06-04T21:57:45.453Z,97037.31
2023-06-04T22:00:16.791Z,97034.03
2023-06-04T22:02:47.297Z,97029.31
2023-06-04T22:05:16.085Z,97030.72
2023-06-04T22:07:44.354Z,97037.81
2023-06-04T22:10:13.244Z,97040.31
2023-06-04T22:12:42.641Z,97031.44
2023-06-04T22:15:11.752Z,97035.72
2023-06-04T22:17:40.384Z,97025.28
2023-06-04T22:20:11.663Z,97021.84
2023-06-04T22:22:39.997Z,97016.00
2023-06-04T22:25:09.354Z,97023.78
2023-06-04T22:27:38.001Z,97029.59
2023-06-04T22:30:08.540Z,97015.06
2023-06-04T22:32:37.333Z,97016.06
2023-06-04T22:35:06.582Z,97020.25
2023-06-04T22:37:36.486Z,97026.06
2023-06-04T22:40:06.168Z,97026.91
2023-06-04T22:42:34.590Z,97016.78
2023-06-04T22:45:03.365Z,97014.25
2023-06-04T22:47:32.757Z,97014.69
2023-06-04T22:50:01.225Z,97019.34
2023-06-04T22:52:30.022Z,97020.09
2023-06-04T22:54:59.802Z,97025.22
2023-06-04T22:57:28.572Z,97021.50
2023-06-04T22:59:57.180Z,97018.81
2023-06-04T23:02:25.486Z,97023.09
2023-06-04T23:04:54.148Z,97018.31
2023-06-04T23:07:22.757Z,97013.50
2023-06-04T23:09:52.515Z,97019.31
2023-06-04T23:12:22.563Z,97019.75
2023-06-04T23:14:51.258Z,97020.75
2023-06-04T23:17:20.769Z,97027.44
2023-06-04T23:19:49.508Z,97020.75
2023-06-04T23:22:18.149Z,97014.75
2023-06-04T23:24:46.801Z,97017.41
2023-06-04T23:27:15.549Z,97017.50
2023-06-04T23:29:46.278Z,97020.88
2023-06-04T23:32:14.792Z,97028.34
2023-06-04T23:34:43.565Z,97018.22
2023-06-04T23:37:12.655Z,97028.44
2023-06-04T23:39:41.404Z,97021.88
2023-06-04T23:42:10.062Z,97025.81
2023-06-04T23:44:38.904Z,97023.06
2023-06-04T23:47:09.328Z,97022.00
2023-06-04T23:49:37.942Z,97019.81
2023-06-04T23:52:07.386Z,97023.63
2023-06-04T23:54:35.773Z,97024.97
2023-06-04T23:57:04.103Z,97027.56
2023-06-04T23:59:32.782Z,97027.13
